createdAt,value
2018-09-28T00:02:08.275Z,99901.98
2018-09-28T00:04:37.508Z,99901.94
2018-09-28T00:07:06.856Z,99890.48
2018-09-28T00:09:36.128Z,99878.47
2018-09-28T00:12:05.237Z,99873.26
2018-09-28T00:14:34.319Z,99865.84
2018-09-28T00:17:03.294Z,99860.32
2018-09-28T00:19:32.517Z,99859.73
2018-09-28T00:22:02.177Z,99858.61
2018-09-28T00:24:31.187Z,99857.20
2018-09-28T00:27:00.274Z,99856.08
2018-09-28T00:29:29.272Z,99860.62
2018-09-28T00:31:59.196Z,99861.42
2018-09-28T00:34:28.654Z,99855.91
2018-09-28T00:36:57.818Z,99848.49
2018-09-28T00:39:27.136Z,99854.22
2018-09-28T00:41:56.285Z,99843.03
2018-09-28T00:44:25.634Z,99843.52
2018-09-28T00:46:54.945Z,99843.19
2018-09-28T00:49:23.921Z,99843.70
2018-09-28T00:51:53.023Z,99834.91
2018-09-28T00:54:22.230Z,99834.84
2018-09-28T00:56:51.381Z,99828.27
2018-09-28T00:59:20.600Z,99825.44
2018-09-28T01:01:49.600Z,99818.06
2018-09-28T01:04:18.849Z,99812.31
2018-09-28T01:06:47.821Z,99805.20
2018-09-28T01:09:17.227Z,99795.63
2018-09-28T01:11:46.333Z,99793.67
2018-09-28T01:14:15.383Z,99789.55
2018-09-28T01:16:45.240Z,99782.45
2018-09-28T01:19:14.351Z,99778.30
2018-09-28T01:21:43.447Z,99777.69
2018-09-28T01:24:12.744Z,99782.27
2018-09-28T01:26:42.071Z,99777.84
2018-09-28T01:29:11.187Z,99783.75
2018-09-28T01:31:40.109Z,99777.47
2018-09-28T01:34:09.035Z,99775.80
2018-09-28T01:36:38.237Z,99776.59
2018-09-28T01:39:09.039Z,99771.38
2018-09-28T01:41:38.398Z,99771.31
2018-09-28T01:44:07.378Z,99765.56
2018-09-28T01:46:36.933Z,99767.72
2018-09-28T01:49:06.053Z,99760.41
2018-09-28T01:51:35.597Z,99760.11
2018-09-28T01:54:06.071Z,99758.45
2018-09-28T01:56:35.047Z,99757.09
2018-09-28T01:59:04.194Z,99755.74
2018-09-28T02:01:33.567Z,99759.81
2018-09-28T02:04:02.828Z,99750.82
2018-09-28T02:06:31.894Z,99744.01
2018-09-28T02:09:01.014Z,99748.28
2018-09-28T02:11:30.152Z,99749.62
2018-09-28T02:13:59.839Z,99740.59
2018-09-28T02:16:29.157Z,99743.04
2018-09-28T02:18:58.513Z,99738.67
2018-09-28T02:21:28.061Z,99741.09
2018-09-28T02:23:58.018Z,99738.09
2018-09-28T02:26:27.260Z,99728.86
2018-09-28T02:28:56.236Z,99734.52
2018-09-28T02:31:25.449Z,99735.34
2018-09-28T02:33:54.800Z,99724.49
2018-09-28T02:36:24.428Z,99721.55
2018-09-28T02:38:54.365Z,99720.72
2018-09-28T02:41:23.644Z,99713.64
2018-09-28T02:43:52.851Z,99714.47
2018-09-28T02:46:21.982Z,99719.06
2018-09-28T02:48:51.185Z,99714.47
2018-09-28T02:51:20.213Z,99712.81
2018-09-28T02:53:49.252Z,99707.39
2018-09-28T02:56:18.147Z,99702.50
2018-09-28T02:58:47.523Z,99698.16
2018-09-28T03:01:16.586Z,99703.82
2018-09-28T03:03:45.991Z,99691.06
2018-09-28T03:06:15.133Z,99699.20
2018-09-28T03:08:44.355Z,99697.28
2018-09-28T03:11:13.421Z,99703.80
2018-09-28T03:13:42.553Z,99711.34
2018-09-28T03:16:11.834Z,99709.45
2018-09-28T03:18:41.036Z,99706.45
2018-09-28T03:21:10.656Z,99704.00
2018-09-28T03:23:40.232Z,99698.05
2018-09-28T03:26:09.431Z,99698.58
2018-09-28T03:28:38.733Z,99700.46
2018-09-28T03:31:07.700Z,99691.20
2018-09-28T03:33:36.888Z,99686.05
2018-09-28T03:36:05.927Z,99679.27
2018-09-28T03:38:35.609Z,99679.80
2018-09-28T03:41:04.747Z,99677.32
2018-09-28T03:43:34.221Z,99684.10
2018-09-28T03:46:03.510Z,99686.81
2018-09-28T03:48:32.908Z,99684.10
2018-09-28T03:51:02.040Z,99683.28
2018-09-28T03:53:30.965Z,99678.38
2018-09-28T03:55:59.913Z,99681.36
2018-09-28T03:58:28.886Z,99688.37
2018-09-28T04:00:58.056Z,99684.25
2018-09-28T04:03:27.243Z,99679.59
2018-09-28T04:05:56.371Z,99676.32
2018-09-28T04:08:26.528Z,99676.32
2018-09-28T04:10:55.443Z,99675.20
2018-09-28T04:13:30.943Z,99674.67
2018-09-28T04:16:00.263Z,99679.27
2018-09-28T04:18:29.567Z,99679.00
2018-09-28T04:20:58.624Z,99680.63
2018-09-28T04:23:27.697Z,99683.90
2018-09-28T04:25:56.832Z,99683.33
2018-09-28T04:28:26.172Z,99686.88
2018-09-28T04:30:55.240Z,99686.88
2018-09-28T04:33:24.583Z,99685.52
2018-09-28T04:35:53.684Z,99681.98
2018-09-28T04:38:22.764Z,99685.78
2018-09-28T04:40:52.355Z,99685.19
2018-09-28T04:43:21.469Z,99688.73
2018-09-28T04:45:50.848Z,99693.09
2018-09-28T04:48:20.046Z,99696.33
2018-09-28T04:50:49.283Z,99696.63
2018-09-28T04:53:19.006Z,99697.69
2018-09-28T04:55:48.664Z,99698.52
2018-09-28T04:58:17.781Z,99701.52
2018-09-28T05:00:47.200Z,99698.81
2018-09-28T05:03:16.486Z,99694.45
2018-09-28T05:05:45.571Z,99701.52
2018-09-28T05:08:14.631Z,99709.66
2018-09-28T05:10:43.834Z,99705.03
2018-09-28T05:13:13.234Z,99701.26
2018-09-28T05:15:43.408Z,99693.95
2018-09-28T05:18:12.479Z,99695.06
2018-09-28T05:20:41.574Z,99698.55
2018-09-28T05:23:10.652Z,99699.38
2018-09-28T05:25:39.667Z,99706.70
2018-09-28T05:28:09.032Z,99714.61
2018-09-28T05:30:44.971Z,99716.86
2018-09-28T05:33:07.941Z,99717.45
2018-09-28T05:35:37.165Z,99713.94
2018-09-28T05:38:06.068Z,99710.98
2018-09-28T05:40:36.156Z,99715.09
2018-09-28T05:43:05.400Z,99710.25
2018-09-28T05:45:34.822Z,99706.74
2018-09-28T05:48:03.949Z,99707.86
2018-09-28T05:50:33.050Z,99709.78
2018-09-28T05:53:02.323Z,99709.55
2018-09-28T05:55:31.697Z,99709.80
2018-09-28T05:58:05.842Z,99708.51
2018-09-28T06:00:40.191Z,99718.33
2018-09-28T06:03:16.366Z,99716.49
2018-09-28T06:05:50.451Z,99715.20
2018-09-28T06:08:19.480Z,99716.88
2018-09-28T06:10:48.841Z,99714.19
2018-09-28T06:13:18.660Z,99709.61
2018-09-28T06:15:48.080Z,99714.83
2018-09-28T06:18:17.343Z,99717.03
2018-09-28T06:20:46.489Z,99717.91
2018-09-28T06:23:15.515Z,99719.00
2018-09-28T06:25:45.340Z,99716.61
2018-09-28T06:28:14.623Z,99716.68
2018-09-28T06:30:44.404Z,99719.50
2018-09-28T06:33:13.796Z,99723.38
2018-09-28T06:35:43.189Z,99725.90
2018-09-28T06:38:12.441Z,99725.99
2018-09-28T06:40:42.200Z,99731.80
2018-09-28T06:43:11.871Z,99730.77
2018-09-28T06:45:40.947Z,99728.67
2018-09-28T06:48:10.383Z,99726.08
2018-09-28T06:50:39.787Z,99729.69
2018-09-28T06:53:08.908Z,99730.02
2018-09-28T06:55:38.223Z,99726.00
2018-09-28T06:58:07.653Z,99725.77
2018-09-28T07:00:37.224Z,99729.33
2018-09-28T07:03:07.151Z,99718.22
2018-09-28T07:05:36.066Z,99723.38
2018-09-28T07:08:05.512Z,99721.23
2018-09-28T07:10:34.837Z,99722.91
2018-09-28T07:13:04.027Z,99716.66
2018-09-28T07:15:33.535Z,99710.97
2018-09-28T07:18:02.665Z,99715.89
2018-09-28T07:20:31.975Z,99711.83
2018-09-28T07:23:01.157Z,99709.98
2018-09-28T07:25:31.035Z,99712.17
2018-09-28T07:28:00.384Z,99718.45
2018-09-28T07:30:29.548Z,99719.28
2018-09-28T07:32:58.683Z,99715.51
2018-09-28T07:35:28.105Z,99715.27
2018-09-28T07:37:57.116Z,99725.63
2018-09-28T07:40:26.537Z,99717.52
2018-09-28T07:42:55.796Z,99715.92
2018-09-28T07:45:25.146Z,99717.84
2018-09-28T07:47:54.344Z,99725.77
2018-09-28T07:50:24.290Z,99728.78
2018-09-28T07:52:53.574Z,99734.52
2018-09-28T07:55:23.152Z,99728.34
2018-09-28T07:57:52.457Z,99728.36
2018-09-28T08:00:21.496Z,99724.64
2018-09-28T08:02:51.299Z,99722.52
2018-09-28T08:05:20.762Z,99723.34
2018-09-28T08:07:49.857Z,99729.38
2018-09-28T08:10:18.989Z,99725.09
2018-09-28T08:12:48.021Z,99724.30
2018-09-28T08:15:17.506Z,99723.53
2018-09-28T08:17:46.690Z,99709.66
2018-09-28T08:20:17.690Z,99711.34
2018-09-28T08:22:47.250Z,99716.04
2018-09-28T08:25:16.305Z,99710.08
2018-09-28T08:27:45.495Z,99714.76
2018-09-28T08:30:14.758Z,99714.84
2018-09-28T08:32:44.096Z,99726.04
2018-09-28T08:35:13.068Z,99726.33
2018-09-28T08:37:42.834Z,99726.08
2018-09-28T08:40:12.355Z,99719.00
2018-09-28T08:42:42.024Z,99715.19
2018-09-28T08:45:11.444Z,99717.91
2018-09-28T08:47:40.657Z,99716.81
2018-09-28T08:50:09.648Z,99716.56
2018-09-28T08:52:38.847Z,99705.89
2018-09-28T08:55:07.749Z,99698.52
2018-09-28T08:57:37.931Z,99700.95
2018-09-28T09:00:07.313Z,99696.52
2018-09-28T09:02:36.624Z,99692.69
2018-09-28T09:05:06.290Z,99689.61
2018-09-28T09:07:35.417Z,99696.67
2018-09-28T09:10:04.482Z,99692.81
2018-09-28T09:12:33.739Z,99692.76
2018-09-28T09:15:02.814Z,99689.65
2018-09-28T09:17:31.999Z,99691.77
2018-09-28T09:20:01.315Z,99689.23
2018-09-28T09:22:30.563Z,99681.75
2018-09-28T09:25:00.007Z,99684.67
2018-09-28T09:27:29.591Z,99677.48
2018-09-28T09:29:58.790Z,99676.28
2018-09-28T09:32:28.032Z,99670.98
2018-09-28T09:34:57.335Z,99673.64
2018-09-28T09:37:28.159Z,99669.68
2018-09-28T09:39:58.492Z,99658.87
2018-09-28T09:42:27.614Z,99654.08
2018-09-28T09:44:57.031Z,99662.72
2018-09-28T09:47:26.275Z,99664.80
2018-09-28T09:49:55.416Z,99656.44
2018-09-28T09:52:25.011Z,99656.83
2018-09-28T09:54:54.236Z,99652.83
2018-09-28T09:57:23.380Z,99655.95
2018-09-28T09:59:52.719Z,99643.45
2018-09-28T10:02:27.098Z,99641.94
2018-09-28T10:04:56.264Z,99631.31
2018-09-28T10:07:25.565Z,99631.67
2018-09-28T10:09:54.836Z,99630.38
2018-09-28T10:12:24.670Z,99628.53
2018-09-28T10:14:54.734Z,99620.09
2018-09-28T10:17:24.167Z,99614.11
2018-09-28T10:19:53.225Z,99619.11
2018-09-28T10:22:22.630Z,99614.52
2018-09-28T10:24:51.866Z,99612.34
2018-09-28T10:27:20.931Z,99618.64
2018-09-28T10:29:50.187Z,99614.55
2018-09-28T10:32:20.139Z,99614.52
2018-09-28T10:34:49.643Z,99613.98
2018-09-28T10:37:18.988Z,99607.16
2018-09-28T10:39:48.128Z,99597.31
2018-09-28T10:42:17.142Z,99597.31
2018-09-28T10:44:46.587Z,99588.54
2018-09-28T10:47:15.671Z,99589.42
2018-09-28T10:49:44.798Z,99582.05
2018-09-28T10:52:15.325Z,99583.23
2018-09-28T10:54:44.427Z,99578.64
2018-09-28T10:57:14.316Z,99571.41
2018-09-28T10:59:43.500Z,99568.75
2018-09-28T11:02:12.837Z,99571.69
2018-09-28T11:04:42.122Z,99569.63
2018-09-28T11:07:11.403Z,99565.28
2018-09-28T11:09:40.713Z,99559.56
2018-09-28T11:12:10.880Z,99560.08
2018-09-28T11:14:40.138Z,99549.66
2018-09-28T11:17:09.979Z,99544.14
2018-09-28T11:19:40.036Z,99543.45
2018-09-28T11:22:09.280Z,99537.17
2018-09-28T11:24:38.740Z,99531.42
2018-09-28T11:27:08.009Z,99534.05
2018-09-28T11:29:37.244Z,99528.86
2018-09-28T11:32:06.647Z,99522.84
2018-09-28T11:34:35.754Z,99520.10
2018-09-28T11:37:04.861Z,99517.16
2018-09-28T11:39:33.863Z,99514.16
2018-09-28T11:42:03.171Z,99513.34
2018-09-28T11:44:32.227Z,99514.77
2018-09-28T11:47:01.364Z,99502.40
2018-09-28T11:49:30.500Z,99493.14
2018-09-28T11:51:59.745Z,99489.87
2018-09-28T11:54:28.733Z,99481.17
2018-09-28T11:56:57.952Z,99487.00
2018-09-28T11:59:27.054Z,99480.64
2018-09-28T12:01:56.104Z,99479.91
2018-09-28T12:04:25.291Z,99476.88
2018-09-28T12:06:54.578Z,99470.59
2018-09-28T12:09:23.887Z,99473.49
2018-09-28T12:11:53.921Z,99472.51
2018-09-28T12:14:23.272Z,99466.31
2018-09-28T12:16:52.358Z,99465.45
2018-09-28T12:19:21.707Z,99459.58
2018-09-28T12:21:51.032Z,99461.45
2018-09-28T12:24:20.695Z,99460.78
2018-09-28T12:26:50.053Z,99454.94
2018-09-28T12:29:19.448Z,99459.44
2018-09-28T12:31:48.578Z,99457.88
2018-09-28T12:34:17.750Z,99448.27
2018-09-28T12:36:46.994Z,99449.94
2018-09-28T12:39:16.358Z,99443.97
2018-09-28T12:41:46.113Z,99433.86
2018-09-28T12:44:15.504Z,99431.80
2018-09-28T12:46:44.959Z,99431.59
2018-09-28T12:49:14.705Z,99431.72
2018-09-28T12:51:43.964Z,99431.86
2018-09-28T12:54:13.182Z,99421.03
2018-09-28T12:56:42.869Z,99421.98
2018-09-28T12:59:12.195Z,99414.95
2018-09-28T13:01:42.103Z,99415.15
2018-09-28T13:04:16.938Z,99415.85
2018-09-28T13:06:47.513Z,99409.75
2018-09-28T13:09:16.719Z,99411.70
2018-09-28T13:11:46.515Z,99403.16
2018-09-28T13:14:15.780Z,99389.89
2018-09-28T13:16:45.419Z,99395.09
2018-09-28T13:19:14.680Z,99393.03
2018-09-28T13:21:44.631Z,99382.78
2018-09-28T13:24:14.249Z,99376.67
2018-09-28T13:26:43.506Z,99387.30
2018-09-28T13:29:12.879Z,99384.55
2018-09-28T13:31:42.084Z,99373.94
2018-09-28T13:34:11.015Z,99372.11
2018-09-28T13:36:41.075Z,99368.90
2018-09-28T13:39:10.247Z,99372.84
2018-09-28T13:41:39.688Z,99366.98
2018-09-28T13:44:08.750Z,99369.39
2018-09-28T13:46:38.134Z,99356.94
2018-09-28T13:49:07.656Z,99355.91
2018-09-28T13:51:37.060Z,99361.20
2018-09-28T13:54:06.098Z,99358.44
2018-09-28T13:56:35.485Z,99355.91
2018-09-28T13:59:04.817Z,99354.73
2018-09-28T14:01:33.921Z,99354.73
2018-09-28T14:04:02.909Z,99350.38
2018-09-28T14:06:32.461Z,99353.02
2018-09-28T14:09:01.891Z,99346.80
2018-09-28T14:11:31.239Z,99344.52
2018-09-28T14:14:00.492Z,99347.73
2018-09-28T14:16:30.102Z,99344.16
2018-09-28T14:18:59.275Z,99345.89
2018-09-28T14:21:28.646Z,99341.95
2018-09-28T14:23:58.141Z,99336.86
2018-09-28T14:26:27.530Z,99332.91
2018-09-28T14:28:56.683Z,99329.09
2018-09-28T14:31:26.265Z,99340.96
2018-09-28T14:33:55.240Z,99332.61
2018-09-28T14:36:24.747Z,99328.45
2018-09-28T14:38:54.014Z,99319.45
2018-09-28T14:41:23.280Z,99319.22
2018-09-28T14:43:52.649Z,99315.72
2018-09-28T14:46:22.188Z,99314.91
2018-09-28T14:48:51.611Z,99309.38
2018-09-28T14:51:20.657Z,99311.08
2018-09-28T14:53:49.883Z,99305.54
2018-09-28T14:56:19.289Z,99302.41
2018-09-28T14:58:48.675Z,99297.42
2018-09-28T15:01:17.860Z,99301.55
2018-09-28T15:03:47.287Z,99307.04
2018-09-28T15:06:16.647Z,99305.20
2018-09-28T15:08:46.159Z,99306.20
2018-09-28T15:11:15.752Z,99302.36
2018-09-28T15:13:44.788Z,99304.86
2018-09-28T15:16:13.867Z,99307.67
2018-09-28T15:18:43.165Z,99304.11
2018-09-28T15:21:12.900Z,99307.52
2018-09-28T15:23:41.952Z,99306.54
2018-09-28T15:26:11.213Z,99304.70
2018-09-28T15:28:41.003Z,99304.52
2018-09-28T15:31:10.586Z,99307.98
2018-09-28T15:33:39.615Z,99307.17
2018-09-28T15:36:08.688Z,99306.41
2018-09-28T15:38:38.059Z,99317.97
2018-09-28T15:41:07.300Z,99309.96
2018-09-28T15:43:36.580Z,99312.17
2018-09-28T15:46:06.811Z,99313.00
2018-09-28T15:48:36.405Z,99309.38
2018-09-28T15:51:05.896Z,99312.61
2018-09-28T15:53:35.409Z,99313.11
2018-09-28T15:56:04.593Z,99315.47
2018-09-28T15:58:34.193Z,99313.74
2018-09-28T16:01:03.243Z,99316.19
2018-09-28T16:03:32.338Z,99321.95
2018-09-28T16:06:01.318Z,99321.06
2018-09-28T16:08:30.504Z,99319.42
2018-09-28T16:10:59.902Z,99321.30
2018-09-28T16:13:29.084Z,99317.09
2018-09-28T16:15:58.787Z,99315.39
2018-09-28T16:18:28.029Z,99321.69
2018-09-28T16:20:57.196Z,99321.58
2018-09-28T16:23:26.149Z,99326.98
2018-09-28T16:25:55.160Z,99326.87
2018-09-28T16:28:24.272Z,99326.53
2018-09-28T16:30:53.653Z,99332.21
2018-09-28T16:33:22.927Z,99329.34
2018-09-28T16:35:52.286Z,99332.26
2018-09-28T16:38:22.004Z,99327.75
2018-09-28T16:40:51.389Z,99334.23
2018-09-28T16:43:20.253Z,99333.25
2018-09-28T16:45:49.979Z,99330.88
2018-09-28T16:48:19.498Z,99331.83
2018-09-28T16:50:48.590Z,99333.03
2018-09-28T16:53:20.447Z,99332.04
2018-09-28T16:55:49.700Z,99338.23
2018-09-28T16:58:18.892Z,99337.84
2018-09-28T17:00:48.184Z,99346.00
2018-09-28T17:03:17.655Z,99347.56
2018-09-28T17:05:47.585Z,99352.38
2018-09-28T17:08:16.858Z,99351.16
2018-09-28T17:10:45.963Z,99359.77
2018-09-28T17:13:15.270Z,99354.95
2018-09-28T17:15:44.359Z,99357.52
2018-09-28T17:18:13.626Z,99369.70
2018-09-28T17:20:42.999Z,99368.41
2018-09-28T17:23:11.954Z,99371.78
2018-09-28T17:25:41.250Z,99378.70
2018-09-28T17:28:11.570Z,99376.31
2018-09-28T17:30:41.055Z,99376.65
2018-09-28T17:33:11.052Z,99385.52
2018-09-28T17:35:40.708Z,99381.99
2018-09-28T17:38:10.243Z,99390.87
2018-09-28T17:40:39.594Z,99390.94
2018-09-28T17:43:09.086Z,99398.08
2018-09-28T17:45:39.464Z,99398.95
2018-09-28T17:48:08.479Z,99410.31
2018-09-28T17:50:38.145Z,99420.78
2018-09-28T17:53:07.557Z,99415.36
2018-09-28T17:55:36.838Z,99435.15
2018-09-28T17:58:06.061Z,99444.77
2018-09-28T18:00:35.495Z,99437.67
2018-09-28T18:03:04.565Z,99443.63
2018-09-28T18:05:33.661Z,99451.73
2018-09-28T18:08:02.987Z,99456.01
2018-09-28T18:10:32.072Z,99463.88
2018-09-28T18:13:01.292Z,99463.73
2018-09-28T18:15:30.933Z,99469.84
2018-09-28T18:18:00.124Z,99470.63
2018-09-28T18:20:29.112Z,99474.87
2018-09-28T18:22:58.320Z,99484.07
2018-09-28T18:25:27.811Z,99481.70
2018-09-28T18:27:57.017Z,99483.98
2018-09-28T18:30:26.254Z,99485.17
2018-09-28T18:32:55.384Z,99495.12
2018-09-28T18:35:24.911Z,99496.02
2018-09-28T18:37:54.395Z,99498.27
2018-09-28T18:40:23.830Z,99495.81
2018-09-28T18:42:53.129Z,99508.71
2018-09-28T18:45:22.268Z,99509.53
2018-09-28T18:47:51.769Z,99513.41
2018-09-28T18:50:20.942Z,99518.37
2018-09-28T18:52:50.043Z,99523.64
2018-09-28T18:55:19.669Z,99533.64
2018-09-28T18:57:48.778Z,99539.52
2018-09-28T19:00:17.947Z,99531.36
2018-09-28T19:02:47.056Z,99543.53
2018-09-28T19:05:16.257Z,99549.36
2018-09-28T19:07:45.405Z,99555.73
2018-09-28T19:10:14.641Z,99555.86
2018-09-28T19:12:44.069Z,99562.53
2018-09-28T19:15:13.460Z,99560.97
2018-09-28T19:17:43.584Z,99578.06
2018-09-28T19:20:19.017Z,99575.92
2018-09-28T19:22:48.470Z,99574.10
2018-09-28T19:25:17.759Z,99570.59
2018-09-28T19:27:47.294Z,99570.91
2018-09-28T19:30:16.487Z,99580.00
2018-09-28T19:32:45.700Z,99580.59
2018-09-28T19:35:15.108Z,99589.09
2018-09-28T19:37:43.938Z,99586.11
2018-09-28T19:40:12.902Z,99600.91
2018-09-28T19:42:42.254Z,99608.91
2018-09-28T19:45:11.405Z,99608.41
2018-09-28T19:47:40.546Z,99604.92
2018-09-28T19:50:10.001Z,99622.80
2018-09-28T19:52:39.198Z,99617.64
2018-09-28T19:55:08.727Z,99625.31
2018-09-28T19:57:37.938Z,99623.67
2018-09-28T20:00:07.545Z,99623.20
2018-09-28T20:02:36.640Z,99621.59
2018-09-28T20:05:06.428Z,99629.27
2018-09-28T20:07:35.592Z,99642.95
2018-09-28T20:10:05.039Z,99638.58
2018-09-28T20:12:34.152Z,99641.89
2018-09-28T20:15:03.252Z,99643.61
2018-09-28T20:17:32.390Z,99646.69
2018-09-28T20:20:01.693Z,99652.19
2018-09-28T20:22:30.904Z,99666.73
2018-09-28T20:25:00.158Z,99663.50
2018-09-28T20:27:29.648Z,99663.53
2018-09-28T20:29:59.322Z,99665.23
2018-09-28T20:32:28.403Z,99664.19
2018-09-28T20:34:57.666Z,99666.70
2018-09-28T20:37:27.205Z,99654.72
2018-09-28T20:39:56.189Z,99663.22
2018-09-28T20:42:25.222Z,99669.80
2018-09-28T20:44:54.436Z,99672.56
2018-09-28T20:47:23.674Z,99678.89
2018-09-28T20:49:53.358Z,99672.61
2018-09-28T20:52:22.565Z,99677.30
2018-09-28T20:54:51.651Z,99681.41
2018-09-28T20:57:21.049Z,99694.83
2018-09-28T20:59:50.389Z,99695.94
2018-09-28T21:02:20.306Z,99699.48
2018-09-28T21:04:49.453Z,99703.34
2018-09-28T21:07:18.720Z,99706.36
2018-09-28T21:09:47.839Z,99717.30
2018-09-28T21:12:17.240Z,99717.86
2018-09-28T21:14:46.692Z,99717.59
2018-09-28T21:17:16.495Z,99717.58
2018-09-28T21:19:46.406Z,99718.67
2018-09-28T21:22:15.734Z,99722.20
2018-09-28T21:24:45.148Z,99730.39
2018-09-28T21:27:14.460Z,99725.77
2018-09-28T21:29:43.587Z,99736.45
2018-09-28T21:32:13.729Z,99748.19
2018-09-28T21:34:43.622Z,99757.78
2018-09-28T21:37:12.638Z,99754.77
2018-09-28T21:39:41.742Z,99760.78
2018-09-28T21:42:10.992Z,99760.78
2018-09-28T21:44:40.126Z,99764.34
2018-09-28T21:47:09.919Z,99773.37
2018-09-28T21:49:39.008Z,99781.29
2018-09-28T21:52:08.279Z,99774.71
2018-09-28T21:54:37.285Z,99779.59
2018-09-28T21:57:07.135Z,99789.45
2018-09-28T21:59:36.146Z,99785.63
2018-09-28T22:02:05.496Z,99794.89
2018-09-28T22:04:34.599Z,99795.98
2018-09-28T22:07:03.821Z,99810.17
2018-09-28T22:09:33.266Z,99809.36
2018-09-28T22:12:02.418Z,99820.82
2018-09-28T22:14:31.817Z,99814.27
2018-09-28T22:17:01.190Z,99815.59
2018-09-28T22:19:30.183Z,99814.50
2018-09-28T22:21:59.323Z,99811.77
2018-09-28T22:24:28.508Z,99809.30
2018-09-28T22:26:57.839Z,99814.78
2018-09-28T22:29:27.063Z,99819.69
2018-09-28T22:31:56.203Z,99825.40
2018-09-28T22:34:25.499Z,99821.28
2018-09-28T22:36:54.596Z,99823.19
2018-09-28T22:39:23.768Z,99824.81
2018-09-28T22:41:52.891Z,99825.29
2018-09-28T22:44:23.035Z,99823.93
2018-09-28T22:46:52.351Z,99825.26
2018-09-28T22:49:21.326Z,99827.45
2018-09-28T22:51:50.895Z,99834.45
2018-09-28T22:54:20.060Z,99832.17
2018-09-28T22:56:50.426Z,99833.73
2018-09-28T22:59:19.451Z,99832.58
2018-09-28T23:01:48.539Z,99831.45
2018-09-28T23:04:17.833Z,99839.63
2018-09-28T23:06:47.095Z,99840.99
2018-09-28T23:09:16.238Z,99852.96
2018-09-28T23:11:45.643Z,99839.33
2018-09-28T23:14:14.893Z,99842.00
2018-09-28T23:16:44.055Z,99849.29
2018-09-28T23:19:13.524Z,99847.34
2018-09-28T23:21:43.024Z,99853.30
2018-09-28T23:24:12.222Z,99849.16
2018-09-28T23:26:41.325Z,99864.36
2018-09-28T23:29:10.988Z,99866.80
2018-09-28T23:31:40.302Z,99864.06
2018-09-28T23:34:09.410Z,99862.70
2018-09-28T23:36:38.390Z,99865.44
2018-09-28T23:39:09.059Z,99868.45
2018-09-28T23:41:38.749Z,99874.14
2018-09-28T23:44:08.715Z,99873.36
2018-09-28T23:46:37.788Z,99875.55
2018-09-28T23:49:07.574Z,99880.48
2018-09-28T23:51:36.806Z,99880.48
2018-09-28T23:54:06.479Z,99888.35
2018-09-28T23:56:35.517Z,99888.35
2018-09-28T23:59:04.433Z,99886.20
